All current conditions and weather history are recorded live from Forest Drive in Plover Wisconsin. Plover Weather is a Non Profit volunteer public donation funded site.

Live Plover Skycam  Live Plover Skycam




There are no active watches, warnings or advisories

Weather Underground History page Text

Daily Summary for August 17, 2017 Units:  English    Metric   Both
« Previous Day
Next Day »
Daily Weekly Monthly Yearly Custom
  Current: High: Low: Average:
Temperature: 65.1 °F 74.8 °F 64.6 °F 69.3 °F
Dew Point: 65.1 °F 74.8 °F 64.6 °F 69.3 °F
Humidity: 100 % 100 % 99 % 100 %
Wind Speed: 25.3 mph 32.2 mph 4.6 mph 16.2 mph
Wind Gust: 25.3 mph 32.2 mph - -
Wind:West - - SSW
Pressure: 29.69 in 29.78 in 29.61 in -
Precipitation: 0.34 in      
Historical Graphs
 
 
Tabular Data for August 17, 2017
Time Temperature Dew Point Pressure Wind Wind Speed Wind Gust Humidity Rainfall Rate (Hourly)
00:01 64.8 °F 64.8 °F 29.78 in North 13.8 mph 13.8 mph 100 % 0.24 in
00:06 64.8 °F 64.8 °F 29.78 in ENE 12.7 mph 12.7 mph 100 % 0.24 in
00:11 64.6 °F 64.6 °F 29.78 in NE 12.7 mph 12.7 mph 100 % 0.20 in
00:16 64.6 °F 64.6 °F 29.75 in ENE 12.7 mph 12.7 mph 100 % 0.16 in
00:21 64.6 °F 64.6 °F 29.75 in East 12.7 mph 12.7 mph 100 % 0.16 in
00:26 64.6 °F 64.6 °F 29.75 in East 9.2 mph 9.2 mph 100 % 0.12 in
00:31 64.6 °F 64.6 °F 29.75 in ENE 9.2 mph 9.2 mph 100 % 0.12 in
00:36 64.6 °F 64.6 °F 29.75 in NNE 9.2 mph 9.2 mph 100 % 0.08 in
00:41 64.6 °F 64.6 °F 29.75 in ENE 9.2 mph 9.2 mph 100 % 0.08 in
00:46 64.6 °F 64.6 °F 29.75 in NNW 9.2 mph 9.2 mph 100 % 0.04 in
00:51 64.6 °F 64.6 °F 29.75 in SSE 9.2 mph 9.2 mph 100 % 0.00 in
00:56 64.6 °F 64.6 °F 29.75 in SSE 9.2 mph 9.2 mph 100 % 0.00 in
01:01 64.8 °F 64.8 °F 29.75 in ESE 9.2 mph 9.2 mph 100 % 0.00 in
01:06 64.8 °F 64.8 °F 29.75 in NE 8.1 mph 8.1 mph 100 % 0.00 in
01:07 64.8 °F 64.8 °F 29.75 in NE 8.1 mph 8.1 mph 100 % 0.00 in
01:12 64.9 °F 64.9 °F 29.75 in East 8.1 mph 8.1 mph 100 % 0.00 in
01:17 65.1 °F 65.1 °F 29.72 in East 8.1 mph 8.1 mph 100 % 0.00 in
01:22 65.1 °F 65.1 °F 29.72 in NE 8.1 mph 9.2 mph 100 % 0.00 in
01:27 65.3 °F 65.3 °F 29.72 in ESE 9.2 mph 9.2 mph 100 % 0.00 in
01:32 65.5 °F 65.5 °F 29.72 in East 9.2 mph 9.2 mph 100 % 0.00 in
01:37 65.5 °F 65.5 °F 29.72 in WSW 9.2 mph 9.2 mph 100 % 0.00 in
01:42 65.7 °F 65.7 °F 29.72 in SSE 9.2 mph 9.2 mph 100 % 0.00 in
01:52 65.8 °F 65.8 °F 29.72 in SSE 9.2 mph 9.2 mph 100 % 0.00 in
01:57 65.8 °F 65.8 °F 29.72 in NE 8.1 mph 8.1 mph 100 % 0.00 in
02:02 66.0 °F 66.0 °F 29.72 in NNE 8.1 mph 8.1 mph 100 % 0.00 in
02:07 66.0 °F 66.0 °F 29.72 in NNE 4.6 mph 4.6 mph 100 % 0.00 in
02:12 66.2 °F 66.2 °F 29.72 in SE 4.6 mph 4.6 mph 100 % 0.00 in
02:17 66.2 °F 66.2 °F 29.69 in ENE 4.6 mph 4.6 mph 100 % 0.00 in
02:22 66.4 °F 66.4 °F 29.69 in SE 4.6 mph 4.6 mph 100 % 0.00 in
02:27 66.4 °F 66.4 °F 29.69 in SE 4.6 mph 4.6 mph 100 % 0.00 in
02:32 66.6 °F 66.6 °F 29.69 in NNE 4.6 mph 4.6 mph 100 % 0.00 in
02:37 66.6 °F 66.6 °F 29.69 in South 4.6 mph 4.6 mph 100 % 0.00 in
02:42 66.7 °F 66.7 °F 29.69 in SE 4.6 mph 4.6 mph 100 % 0.00 in
02:47 66.9 °F 66.9 °F 29.69 in SSE 4.6 mph 4.6 mph 100 % 0.00 in
02:52 67.1 °F 67.1 °F 29.69 in SSW 4.6 mph 4.6 mph 100 % 0.00 in
02:57 67.1 °F 67.1 °F 29.69 in SSE 4.6 mph 4.6 mph 100 % 0.00 in
03:02 67.3 °F 67.3 °F 29.67 in South 9.2 mph 9.2 mph 100 % 0.00 in
03:07 67.5 °F 67.5 °F 29.67 in South 9.2 mph 9.2 mph 100 % 0.00 in
03:12 67.6 °F 67.6 °F 29.67 in SSW 9.2 mph 9.2 mph 100 % 0.00 in
03:17 67.6 °F 67.6 °F 29.69 in SW 8.1 mph 8.1 mph 100 % 0.00 in
03:22 67.8 °F 67.8 °F 29.69 in ENE 8.1 mph 8.1 mph 100 % 0.00 in
03:27 68.0 °F 68.0 °F 29.69 in SSE 8.1 mph 8.1 mph 100 % 0.00 in
03:32 68.0 °F 68.0 °F 29.69 in WSW 8.1 mph 8.1 mph 100 % 0.00 in
03:37 68.2 °F 68.2 °F 29.69 in SSW 8.1 mph 8.1 mph 100 % 0.00 in
03:42 68.2 °F 68.2 °F 29.69 in ESE 8.1 mph 8.1 mph 100 % 0.00 in
03:47 68.4 °F 68.4 °F 29.67 in SSE 8.1 mph 8.1 mph 100 % 0.00 in
03:52 68.4 °F 68.4 °F 29.67 in SSE 8.1 mph 8.1 mph 100 % 0.00 in
03:57 68.5 °F 68.5 °F 29.67 in SW 8.1 mph 8.1 mph 100 % 0.00 in
04:02 68.5 °F 68.5 °F 29.67 in SSW 8.1 mph 8.1 mph 100 % 0.00 in
04:07 68.7 °F 68.7 °F 29.67 in WSW 5.8 mph 5.8 mph 100 % 0.00 in
04:12 68.7 °F 68.7 °F 29.67 in SSE 5.8 mph 5.8 mph 100 % 0.00 in
04:17 68.7 °F 68.7 °F 29.67 in SSW 5.8 mph 5.8 mph 100 % 0.00 in
04:22 68.9 °F 68.9 °F 29.67 in SSW 5.8 mph 5.8 mph 100 % 0.00 in
04:27 68.9 °F 68.9 °F 29.67 in SE 5.8 mph 5.8 mph 100 % 0.00 in
04:32 68.9 °F 68.9 °F 29.67 in SSE 5.8 mph 5.8 mph 100 % 0.00 in
04:37 69.1 °F 69.1 °F 29.67 in SW 5.8 mph 5.8 mph 100 % 0.00 in
04:42 69.1 °F 69.1 °F 29.67 in SSW 5.8 mph 5.8 mph 100 % 0.00 in
04:47 69.1 °F 69.1 °F 29.64 in SSW 5.8 mph 5.8 mph 100 % 0.00 in
04:52 68.9 °F 68.9 °F 29.64 in SSW 5.8 mph 5.8 mph 100 % 0.00 in
04:57 69.1 °F 69.1 °F 29.64 in WSW 5.8 mph 5.8 mph 100 % 0.00 in
05:02 69.1 °F 69.1 °F 29.67 in SSW 5.8 mph 5.8 mph 100 % 0.00 in
05:07 69.1 °F 69.1 °F 29.67 in SSW 5.8 mph 5.8 mph 100 % 0.00 in
05:12 69.1 °F 69.1 °F 29.67 in WSW 5.8 mph 5.8 mph 100 % 0.00 in
05:17 68.9 °F 68.9 °F 29.64 in West 5.8 mph 5.8 mph 100 % 0.00 in
05:22 68.9 °F 68.9 °F 29.64 in South 5.8 mph 5.8 mph 100 % 0.00 in
05:27 68.9 °F 68.9 °F 29.64 in South 5.8 mph 5.8 mph 100 % 0.00 in
05:32 68.9 °F 68.9 °F 29.64 in SE 6.9 mph 6.9 mph 100 % 0.00 in
05:37 69.1 °F 69.1 °F 29.64 in SSW 6.9 mph 6.9 mph 100 % 0.00 in
05:39 69.1 °F 69.1 °F 29.64 in South 6.9 mph 6.9 mph 100 % 0.00 in
05:44 69.1 °F 69.1 °F 29.64 in South 6.9 mph 6.9 mph 100 % 0.00 in
05:49 69.1 °F 69.1 °F 29.64 in SSW 6.9 mph 6.9 mph 100 % 0.00 in
05:54 69.1 °F 69.1 °F 29.64 in SSE 6.9 mph 6.9 mph 100 % 0.00 in
05:59 69.3 °F 69.3 °F 29.64 in SSE 6.9 mph 6.9 mph 100 % 0.00 in
06:04 69.3 °F 69.3 °F 29.64 in SSW 6.9 mph 6.9 mph 100 % 0.00 in
06:09 69.3 °F 69.3 °F 29.64 in SSW 6.9 mph 6.9 mph 100 % 0.00 in
06:14 69.4 °F 69.4 °F 29.64 in SW 6.9 mph 6.9 mph 100 % 0.00 in
06:19 69.4 °F 69.4 °F 29.64 in SSW 6.9 mph 6.9 mph 100 % 0.00 in
06:24 69.4 °F 69.4 °F 29.64 in SE 6.9 mph 6.9 mph 100 % 0.00 in
06:29 69.4 °F 69.4 °F 29.64 in WSW 6.9 mph 6.9 mph 100 % 0.00 in
06:34 69.4 °F 69.4 °F 29.64 in SW 10.4 mph 10.4 mph 100 % 0.00 in
06:39 69.6 °F 69.6 °F 29.64 in SSW 10.4 mph 10.4 mph 100 % 0.00 in
06:44 69.6 °F 69.6 °F 29.64 in SSW 10.4 mph 10.4 mph 100 % 0.00 in
06:49 69.6 °F 69.6 °F 29.64 in SSW 10.4 mph 10.4 mph 100 % 0.00 in
06:54 69.8 °F 69.8 °F 29.64 in SSW 10.4 mph 10.4 mph 100 % 0.00 in
06:59 69.8 °F 69.8 °F 29.64 in South 10.4 mph 10.4 mph 100 % 0.00 in
07:04 69.8 °F 69.8 °F 29.64 in SW 9.2 mph 9.2 mph 100 % 0.00 in
07:09 69.6 °F 69.6 °F 29.64 in SW 9.2 mph 9.2 mph 100 % 0.00 in
07:14 69.6 °F 69.6 °F 29.64 in South 9.2 mph 9.2 mph 100 % 0.00 in
07:19 69.6 °F 69.6 °F 29.67 in SW 9.2 mph 9.2 mph 100 % 0.00 in
07:24 69.8 °F 69.8 °F 29.67 in SW 9.2 mph 9.2 mph 100 % 0.00 in
07:29 69.6 °F 69.6 °F 29.67 in SSW 9.2 mph 9.2 mph 100 % 0.00 in
07:34 69.4 °F 69.4 °F 29.64 in SSW 9.2 mph 9.2 mph 100 % 0.00 in
07:39 69.4 °F 69.4 °F 29.64 in South 9.2 mph 9.2 mph 100 % 0.00 in
07:44 70.0 °F 70.0 °F 29.64 in SSW 11.5 mph 11.5 mph 100 % 0.00 in
07:49 70.9 °F 70.9 °F 29.64 in SSW 11.5 mph 11.5 mph 100 % 0.00 in
07:54 70.7 °F 70.7 °F 29.64 in SSW 11.5 mph 11.5 mph 100 % 0.00 in
07:59 70.9 °F 70.9 °F 29.64 in SW 11.5 mph 11.5 mph 100 % 0.04 in
08:04 70.3 °F 70.3 °F 29.64 in SSW 16.1 mph 16.1 mph 100 % 0.04 in
08:09 70.9 °F 70.9 °F 29.64 in WSW 16.1 mph 16.1 mph 100 % 0.04 in
08:14 71.2 °F 71.2 °F 29.64 in SSW 16.1 mph 16.1 mph 100 % 0.04 in
08:19 71.1 °F 71.1 °F 29.67 in SW 16.1 mph 16.1 mph 100 % 0.04 in
08:24 71.1 °F 71.1 °F 29.67 in SW 16.1 mph 16.1 mph 100 % 0.04 in
08:29 71.1 °F 71.1 °F 29.67 in SW 16.1 mph 16.1 mph 100 % 0.04 in
08:34 71.1 °F 71.1 °F 29.67 in SSW 16.1 mph 16.1 mph 100 % 0.04 in
08:39 70.3 °F 70.3 °F 29.67 in South 16.1 mph 16.1 mph 100 % 0.04 in
08:44 69.3 °F 69.3 °F 29.67 in South 8.1 mph 8.1 mph 100 % 0.04 in
08:49 68.7 °F 68.7 °F 29.67 in SSW 8.1 mph 8.1 mph 100 % 0.04 in
08:54 68.4 °F 68.4 °F 29.67 in SW 8.1 mph 8.1 mph 100 % 0.04 in
08:59 68.4 °F 68.4 °F 29.67 in SSW 8.1 mph 8.1 mph 100 % 0.00 in
09:04 68.5 °F 68.5 °F 29.67 in SW 12.7 mph 12.7 mph 100 % 0.00 in
09:09 69.3 °F 69.3 °F 29.67 in South 12.7 mph 12.7 mph 100 % 0.00 in
09:14 69.6 °F 69.6 °F 29.67 in SW 12.7 mph 12.7 mph 100 % 0.00 in
09:19 69.4 °F 69.4 °F 29.67 in WSW 12.7 mph 12.7 mph 100 % 0.00 in
09:24 68.7 °F 68.7 °F 29.67 in WSW 12.7 mph 12.7 mph 100 % 0.00 in
09:29 68.5 °F 68.5 °F 29.67 in SW 12.7 mph 12.7 mph 100 % 0.00 in
09:34 68.2 °F 68.2 °F 29.67 in SSW 12.7 mph 12.7 mph 100 % 0.00 in
09:39 68.0 °F 68.0 °F 29.67 in SW 12.7 mph 12.7 mph 100 % 0.00 in
09:44 68.0 °F 68.0 °F 29.67 in SW 12.7 mph 12.7 mph 100 % 0.00 in
09:49 68.2 °F 68.2 °F 29.64 in SW 12.7 mph 12.7 mph 100 % 0.00 in
09:54 68.7 °F 68.7 °F 29.64 in South 12.7 mph 12.7 mph 100 % 0.00 in
10:04 70.5 °F 70.5 °F 29.67 in WSW 25.3 mph 25.3 mph 100 % 0.00 in
10:09 70.5 °F 70.5 °F 29.67 in SSW 25.3 mph 25.3 mph 100 % 0.00 in
10:14 70.5 °F 70.5 °F 29.67 in SSW 11.5 mph 11.5 mph 100 % 0.00 in
10:19 70.0 °F 70.0 °F 29.67 in SW 11.5 mph 11.5 mph 100 % 0.00 in
10:24 69.8 °F 69.8 °F 29.67 in WSW 11.5 mph 11.5 mph 100 % 0.00 in
10:29 69.4 °F 69.4 °F 29.67 in West 11.5 mph 11.5 mph 100 % 0.00 in
10:34 69.4 °F 69.4 °F 29.67 in SSW 23.0 mph 23.0 mph 100 % 0.00 in
10:39 69.1 °F 69.1 °F 29.67 in South 23.0 mph 23.0 mph 100 % 0.00 in
10:44 68.9 °F 68.9 °F 29.67 in SW 23.0 mph 23.0 mph 100 % 0.00 in
10:49 69.8 °F 69.8 °F 29.64 in South 23.0 mph 23.0 mph 100 % 0.00 in
10:54 71.1 °F 71.1 °F 29.64 in SSW 23.0 mph 23.0 mph 100 % 0.00 in
10:59 71.2 °F 71.2 °F 29.64 in SW 23.0 mph 23.0 mph 100 % 0.00 in
11:04 71.1 °F 71.1 °F 29.64 in South 28.8 mph 28.8 mph 100 % 0.00 in
11:09 71.1 °F 71.1 °F 29.64 in SW 28.8 mph 28.8 mph 100 % 0.00 in
11:14 71.4 °F 71.4 °F 29.64 in South 28.8 mph 28.8 mph 100 % 0.00 in
11:19 71.8 °F 71.8 °F 29.64 in WSW 28.8 mph 28.8 mph 100 % 0.06 in
11:24 71.6 °F 71.6 °F 29.64 in SSW 23.0 mph 23.0 mph 100 % 0.06 in
11:29 72.5 °F 72.5 °F 29.64 in SSE 23.0 mph 23.0 mph 100 % 0.06 in
11:34 72.5 °F 72.5 °F 29.64 in South 12.7 mph 12.7 mph 100 % 0.06 in
11:39 72.3 °F 72.3 °F 29.64 in WSW 12.7 mph 12.7 mph 100 % 0.06 in
11:49 72.0 °F 72.0 °F 29.64 in SSE 12.7 mph 12.7 mph 100 % 0.06 in
11:54 71.2 °F 71.2 °F 29.64 in SW 12.7 mph 12.7 mph 100 % 0.06 in
11:59 70.7 °F 70.7 °F 29.64 in SSW 12.7 mph 12.7 mph 100 % 0.06 in
12:04 70.7 °F 70.7 °F 29.64 in SSW 26.5 mph 26.5 mph 100 % 0.06 in
12:09 70.5 °F 70.5 °F 29.64 in SSW 26.5 mph 26.5 mph 100 % 0.06 in
12:14 70.9 °F 70.9 °F 29.64 in SW 26.5 mph 26.5 mph 100 % 0.06 in
12:19 70.9 °F 70.9 °F 29.64 in SSW 26.5 mph 26.5 mph 100 % 0.00 in
12:24 71.2 °F 71.2 °F 29.64 in SSW 25.3 mph 25.3 mph 100 % 0.00 in
12:29 72.0 °F 72.0 °F 29.64 in SW 25.3 mph 25.3 mph 100 % 0.00 in
12:34 73.0 °F 73.0 °F 29.61 in West 12.7 mph 12.7 mph 100 % 0.00 in
12:39 72.9 °F 72.9 °F 29.61 in SW 12.7 mph 12.7 mph 100 % 0.00 in
12:44 72.9 °F 72.9 °F 29.61 in South 25.3 mph 25.3 mph 100 % 0.00 in
12:49 72.3 °F 72.3 °F 29.61 in SW 25.3 mph 25.3 mph 100 % 0.00 in
12:54 71.8 °F 71.8 °F 29.61 in SW 25.3 mph 25.3 mph 100 % 0.00 in
12:59 70.5 °F 70.5 °F 29.61 in SW 25.3 mph 25.3 mph 100 % 0.00 in
13:04 69.6 °F 69.6 °F 29.61 in SW 25.3 mph 25.3 mph 100 % 0.00 in
13:09 70.3 °F 70.3 °F 29.61 in WSW 25.3 mph 25.3 mph 100 % 0.04 in
13:14 71.1 °F 71.1 °F 29.61 in South 25.3 mph 25.3 mph 100 % 0.04 in
13:19 71.4 °F 71.4 °F 29.61 in South 25.3 mph 25.3 mph 100 % 0.04 in
13:24 71.6 °F 71.6 °F 29.61 in SW 25.3 mph 25.3 mph 100 % 0.04 in
13:29 71.4 °F 71.4 °F 29.61 in SSW 25.3 mph 25.3 mph 100 % 0.12 in
13:34 72.1 °F 72.1 °F 29.61 in SW 25.3 mph 25.3 mph 100 % 0.12 in
13:39 72.7 °F 72.7 °F 29.61 in SW 25.3 mph 25.3 mph 100 % 0.12 in
13:44 73.2 °F 73.2 °F 29.61 in WSW 25.3 mph 25.3 mph 100 % 0.12 in
13:49 73.6 °F 73.6 °F 29.61 in WSW 25.3 mph 25.3 mph 100 % 0.12 in
13:54 73.6 °F 73.6 °F 29.61 in SSW 27.6 mph 27.6 mph 100 % 0.12 in
13:59 73.9 °F 73.9 °F 29.61 in SW 27.6 mph 27.6 mph 100 % 0.12 in
14:04 73.2 °F 73.2 °F 29.61 in SW 25.3 mph 25.3 mph 100 % 0.12 in
14:09 72.1 °F 72.1 °F 29.61 in WSW 25.3 mph 25.3 mph 100 % 0.08 in
14:14 71.8 °F 71.8 °F 29.61 in WSW 25.3 mph 25.3 mph 100 % 0.08 in
14:19 72.5 °F 72.5 °F 29.61 in WSW 25.3 mph 25.3 mph 100 % 0.08 in
14:24 72.1 °F 72.1 °F 29.61 in SW 27.6 mph 27.6 mph 100 % 0.08 in
14:29 72.3 °F 72.3 °F 29.61 in SW 27.6 mph 27.6 mph 100 % 0.00 in
14:34 72.3 °F 72.3 °F 29.61 in SW 27.6 mph 27.6 mph 100 % 0.00 in
14:39 72.7 °F 72.7 °F 29.61 in West 27.6 mph 27.6 mph 100 % 0.00 in
14:44 72.9 °F 72.9 °F 29.61 in SW 27.6 mph 27.6 mph 100 % 0.00 in
14:49 73.4 °F 73.4 °F 29.61 in WSW 27.6 mph 27.6 mph 100 % 0.00 in
14:54 74.5 °F 74.5 °F 29.61 in SSW 27.6 mph 27.6 mph 100 % 0.00 in
14:59 74.8 °F 74.8 °F 29.61 in SW 27.6 mph 27.6 mph 100 % 0.00 in
15:04 74.3 °F 74.3 °F 29.61 in WSW 23.0 mph 23.0 mph 100 % 0.00 in
15:09 73.6 °F 73.6 °F 29.61 in WSW 23.0 mph 23.0 mph 100 % 0.00 in
15:14 73.6 °F 73.6 °F 29.61 in WSW 23.0 mph 23.0 mph 100 % 0.00 in
15:19 73.6 °F 73.6 °F 29.61 in WSW 23.0 mph 23.0 mph 100 % 0.00 in
15:24 73.8 °F 73.8 °F 29.61 in SW 23.0 mph 23.0 mph 100 % 0.00 in
15:29 73.2 °F 73.2 °F 29.61 in WSW 23.0 mph 23.0 mph 100 % 0.00 in
15:34 73.4 °F 73.4 °F 29.61 in WSW 23.0 mph 23.0 mph 100 % 0.00 in
15:39 72.9 °F 72.9 °F 29.61 in SSW 23.0 mph 23.0 mph 100 % 0.00 in
15:44 72.7 °F 72.7 °F 29.61 in WSW 23.0 mph 23.0 mph 100 % 0.00 in
15:49 73.2 °F 73.2 °F 29.61 in WSW 23.0 mph 23.0 mph 100 % 0.00 in
15:54 73.8 °F 73.5 °F 29.61 in WSW 23.0 mph 23.0 mph 99 % 0.00 in
15:59 73.9 °F 73.9 °F 29.61 in SW 23.0 mph 23.0 mph 100 % 0.00 in
16:04 73.9 °F 73.9 °F 29.61 in West 23.0 mph 23.0 mph 100 % 0.00 in
16:09 74.3 °F 74.3 °F 29.61 in SSW 23.0 mph 23.0 mph 100 % 0.00 in
16:14 73.9 °F 73.9 °F 29.61 in WNW 23.0 mph 23.0 mph 100 % 0.00 in
16:19 72.9 °F 72.9 °F 29.61 in West 23.0 mph 23.0 mph 100 % 0.00 in
16:24 72.3 °F 72.3 °F 29.61 in West 23.0 mph 23.0 mph 100 % 0.00 in
16:29 71.8 °F 71.8 °F 29.61 in West 23.0 mph 23.0 mph 100 % 0.00 in
16:34 71.2 °F 71.2 °F 29.61 in West 23.0 mph 23.0 mph 100 % 0.00 in
16:39 71.4 °F 71.4 °F 29.61 in West 23.0 mph 23.0 mph 100 % 0.00 in
16:44 71.8 °F 71.8 °F 29.61 in West 23.0 mph 23.0 mph 100 % 0.00 in
16:49 72.1 °F 72.1 °F 29.61 in SW 23.0 mph 23.0 mph 100 % 0.00 in
16:54 72.3 °F 72.3 °F 29.61 in West 23.0 mph 23.0 mph 100 % 0.00 in
16:59 72.9 °F 72.9 °F 29.61 in SW 23.0 mph 23.0 mph 100 % 0.00 in
17:04 72.9 °F 72.9 °F 29.61 in WSW 32.2 mph 32.2 mph 100 % 0.00 in
17:09 72.3 °F 72.3 °F 29.61 in SSW 32.2 mph 32.2 mph 100 % 0.00 in
17:14 71.6 °F 71.6 °F 29.61 in NW 29.9 mph 29.9 mph 100 % 0.00 in
17:19 70.5 °F 70.5 °F 29.64 in WSW 29.9 mph 29.9 mph 100 % 0.08 in
17:24 70.5 °F 70.5 °F 29.64 in West 29.9 mph 29.9 mph 100 % 0.08 in
17:29 70.3 °F 70.3 °F 29.64 in WSW 29.9 mph 29.9 mph 100 % 0.08 in
17:34 69.6 °F 69.6 °F 29.61 in West 29.9 mph 29.9 mph 100 % 0.08 in
17:39 69.3 °F 69.3 °F 29.61 in WSW 29.9 mph 29.9 mph 100 % 0.08 in
17:44 68.9 °F 68.9 °F 29.61 in West 26.5 mph 26.5 mph 100 % 0.08 in
17:45 68.7 °F 68.7 °F 29.61 in South 26.5 mph 26.5 mph 100 % 0.08 in
17:50 68.5 °F 68.5 °F 29.64 in SSW 26.5 mph 26.5 mph 100 % 0.08 in
17:55 68.0 °F 68.0 °F 29.64 in West 26.5 mph 26.5 mph 100 % 0.08 in
18:00 67.8 °F 67.8 °F 29.64 in WNW 26.5 mph 26.5 mph 100 % 0.08 in
18:06 67.6 °F 67.6 °F 29.64 in SW 28.8 mph 28.8 mph 100 % 0.08 in
18:11 67.6 °F 67.6 °F 29.64 in West 28.8 mph 28.8 mph 100 % 0.08 in
18:16 67.5 °F 67.5 °F 29.64 in West 28.8 mph 28.8 mph 100 % 0.08 in
18:21 67.3 °F 67.3 °F 29.64 in SW 28.8 mph 28.8 mph 100 % 0.00 in
18:26 67.1 °F 67.1 °F 29.64 in NW 28.8 mph 28.8 mph 100 % 0.00 in
18:31 66.9 °F 66.9 °F 29.64 in NW 28.8 mph 28.8 mph 100 % 0.00 in
18:36 66.9 °F 66.9 °F 29.64 in NW 28.8 mph 28.8 mph 100 % 0.04 in
18:41 66.7 °F 66.7 °F 29.64 in NW 28.8 mph 28.8 mph 100 % 0.04 in
18:46 66.6 °F 66.6 °F 29.67 in WSW 28.8 mph 28.8 mph 100 % 0.04 in
18:51 66.6 °F 66.6 °F 29.67 in NNE 28.8 mph 28.8 mph 100 % 0.04 in
18:56 66.6 °F 66.6 °F 29.67 in West 28.8 mph 28.8 mph 100 % 0.04 in
19:01 66.4 °F 66.4 °F 29.67 in WNW 28.8 mph 28.8 mph 100 % 0.04 in
19:06 66.4 °F 66.4 °F 29.67 in West 12.7 mph 12.7 mph 100 % 0.04 in
19:11 66.0 °F 66.0 °F 29.67 in WNW 12.7 mph 12.7 mph 100 % 0.04 in
19:16 66.0 °F 66.0 °F 29.67 in West 12.7 mph 12.7 mph 100 % 0.04 in
19:21 65.8 °F 65.8 °F 29.67 in WSW 12.7 mph 12.7 mph 100 % 0.04 in
19:26 65.8 °F 65.8 °F 29.67 in WNW 12.7 mph 12.7 mph 100 % 0.04 in
19:31 65.7 °F 65.7 °F 29.67 in WNW 12.7 mph 12.7 mph 100 % 0.04 in
19:36 65.7 °F 65.7 °F 29.67 in WNW 12.7 mph 12.7 mph 100 % 0.00 in
19:41 65.5 °F 65.5 °F 29.67 in West 12.7 mph 12.7 mph 100 % 0.00 in
19:46 65.5 °F 65.5 °F 29.69 in SW 12.7 mph 12.7 mph 100 % 0.00 in
19:51 65.3 °F 65.3 °F 29.69 in WNW 12.7 mph 12.7 mph 100 % 0.00 in
19:56 65.3 °F 65.3 °F 29.69 in West 11.5 mph 11.5 mph 100 % 0.00 in
20:01 65.1 °F 65.1 °F 29.69 in WNW 11.5 mph 11.5 mph 100 % 0.00 in
20:06 65.1 °F 65.1 °F 29.69 in West 25.3 mph 25.3 mph 100 % 0.00 in
Live Plover WI Weather - NWS COOP 'PLOW3'
Compliments of Weather Underground - 3.75 mb

Script developed by  Jim McMurry - jmcmurry@mwt.net Adapted for the template by  Wim van der Kuil - Leuven-Template.eu

You find our weather info also at:

Weather Underground

Citizen Weather Observer Program (CWOP)

HAMweather, WeatherForYou, PWS Weather

Anything Weather

Equipment we use:

Weather-station
Davis VP2

Weather-program
Weather Display

Weather-server
Dell I7 WorkStation

Provider
FatCow

Davis VP2

Weather Display

Dell I7 WorkStation

FatCow